Time;durP1;ratioP1;P1;durP2;ratioP2;P2;SDS_P1;SDS_P2;PMS_P1;PMS_P2;Temp;Humidity;BMP_temperature;BMP_pressure;BME280_temperature;BME280_humidity;BME280_pressure;Samples;Min_cycle;Max_cycle;Signal;HPM_P1;HPM_P2
2022/04/26 03:37:24;;;;;;;4.07;2.37;;;9.70;99.90;;;;;;5095236;28;20213;-69
2022/04/26 03:39:51;;;;;;;6.37;1.90;;;9.70;99.90;;;;;;5094590;28;20202;-69
2022/04/26 03:42:18;;;;;;;4.70;2.33;;;9.60;99.90;;;;;;5095516;28;20203;-69
2022/04/26 03:44:44;;;;;;;4.17;2.10;;;9.70;99.90;;;;;;5094992;28;20218;-69
2022/04/26 03:47:11;;;;;;;3.00;1.80;;;9.70;99.90;;;;;;5095167;28;20681;-69
2022/04/26 03:49:40;;;;;;;2.93;1.73;;;9.70;99.90;;;;;;5095368;28;20229;-69
2022/04/26 03:52:07;;;;;;;8.00;1.83;;;9.70;99.90;;;;;;5095179;28;20206;-69
2022/04/26 03:54:35;;;;;;;2.40;1.67;;;9.70;99.90;;;;;;5095280;28;20708;-69
2022/04/26 03:57:02;;;;;;;2.40;1.33;;;9.60;99.90;;;;;;5096176;28;20209;-69
2022/04/26 03:59:28;;;;;;;2.10;1.70;;;9.60;99.90;;;;;;5094711;28;20198;-69
2022/04/26 04:01:56;;;;;;;2.23;1.53;;;9.50;99.90;;;;;;5095612;28;20209;-69
2022/04/26 04:04:22;;;;;;;3.13;1.43;;;9.60;99.90;;;;;;5112598;28;20217;-69
2022/04/26 04:06:52;;;;;;;2.77;1.83;;;9.60;99.90;;;;;;5113956;28;20212;-69
2022/04/26 04:09:18;;;;;;;2.60;1.27;;;9.60;99.90;;;;;;5110383;28;20201;-69
2022/04/26 04:11:45;;;;;;;3.97;1.70;;;9.60;99.90;;;;;;5115219;27;20201;-69
2022/04/26 04:14:14;;;;;;;2.20;1.30;;;9.60;99.90;;;;;;5114670;28;20229;-69
2022/04/26 04:16:41;;;;;;;2.33;1.30;;;9.60;99.90;;;;;;5114960;28;20202;-68
2022/04/26 04:19:20;;;;;;;2.43;1.30;;;9.60;99.90;;;;;;5113999;28;20612;-69
2022/04/26 04:21:48;;;;;;;2.57;1.40;;;9.50;99.90;;;;;;5114240;28;20833;-69
2022/04/26 04:24:16;;;;;;;3.10;1.40;;;9.50;99.90;;;;;;5110347;28;20221;-69
2022/04/26 04:26:43;;;;;;;2.50;1.67;;;9.60;99.90;;;;;;5114634;28;20201;-69
2022/04/26 04:29:10;;;;;;;1.77;1.37;;;9.50;99.90;;;;;;5111079;28;20206;-68
2022/04/26 04:31:37;;;;;;;1.47;1.13;;;9.60;99.90;;;;;;5093778;28;20202;-69
2022/04/26 04:34:04;;;;;;;3.33;1.67;;;9.50;99.90;;;;;;5093852;28;20828;-69
2022/04/26 04:36:32;;;;;;;5.63;1.50;;;9.60;99.90;;;;;;5094118;28;20313;-69
2022/04/26 04:38:59;;;;;;;3.03;1.57;;;9.60;99.90;;;;;;5093899;28;20209;-69
2022/04/26 04:41:28;;;;;;;4.27;1.43;;;9.70;99.90;;;;;;5093007;28;20206;-69
2022/04/26 04:43:55;;;;;;;2.87;1.40;;;9.60;99.90;;;;;;5093448;28;20317;-69
2022/04/26 04:46:21;;;;;;;3.50;1.33;;;9.60;99.90;;;;;;5093230;28;20667;-69
2022/04/26 04:48:48;;;;;;;2.87;1.50;;;9.70;99.90;;;;;;5093171;28;20221;-69
2022/04/26 04:51:15;;;;;;;1.77;1.40;;;9.70;99.90;;;;;;5093348;28;20238;-69
2022/04/26 04:53:42;;;;;;;2.07;1.30;;;9.60;99.90;;;;;;5092887;28;20234;-69
2022/04/26 04:56:09;;;;;;;2.47;1.67;;;9.70;99.90;;;;;;5093683;28;20650;-69
2022/04/26 04:58:38;;;;;;;2.17;1.27;;;9.80;99.90;;;;;;5091948;28;20228;-69
2022/04/26 05:01:05;;;;;;;4.73;1.60;;;9.70;99.90;;;;;;5091847;28;20213;-69
2022/04/26 05:03:32;;;;;;;5.70;2.00;;;9.70;99.90;;;;;;5093136;28;20241;-69
2022/04/26 05:05:59;;;;;;;4.80;1.97;;;9.70;99.90;;;;;;5093666;28;20209;-69
2022/04/26 05:08:26;;;;;;;2.53;1.73;;;9.70;99.90;;;;;;5093443;28;20203;-69
2022/04/26 05:10:53;;;;;;;2.93;1.70;;;9.60;99.90;;;;;;5092619;28;20198;-69
2022/04/26 05:13:19;;;;;;;3.13;1.60;;;9.50;99.90;;;;;;5093579;28;20279;-69
2022/04/26 05:15:48;;;;;;;1.60;1.37;;;9.40;99.90;;;;;;5093785;28;20234;-69
2022/04/26 05:18:15;;;;;;;2.57;1.40;;;9.40;99.90;;;;;;5093487;28;20540;-69
2022/04/26 05:20:43;;;;;;;3.07;1.80;;;9.20;99.90;;;;;;5093365;28;20233;-69
2022/04/26 05:25:54;;;;;;;2.93;1.53;;;9.10;99.90;;;;;;5093368;28;20212;-69
2022/04/26 05:28:21;;;;;;;2.70;1.80;;;9.10;99.90;;;;;;5093922;28;20293;-69
2022/04/26 05:30:51;;;;;;;5.13;1.80;;;9.00;99.90;;;;;;5093562;28;20682;-68
2022/04/26 05:33:18;;;;;;;2.30;1.40;;;9.00;99.90;;;;;;5093324;28;20222;-70
2022/04/26 05:35:44;;;;;;;4.07;1.60;;;9.10;99.90;;;;;;5092865;28;20237;-69
2022/04/26 05:38:11;;;;;;;5.23;1.63;;;9.20;99.90;;;;;;5092217;28;20202;-70
2022/04/26 05:40:38;;;;;;;4.90;1.80;;;9.20;99.90;;;;;;5091880;28;20199;-69
2022/04/26 05:43:05;;;;;;;2.90;1.73;;;9.20;99.90;;;;;;5091956;28;20321;-69
2022/04/26 05:45:32;;;;;;;2.83;1.70;;;9.20;99.90;;;;;;5093381;28;20202;-70
2022/04/26 05:48:00;;;;;;;2.97;1.60;;;9.10;99.90;;;;;;5093467;28;20206;-70
2022/04/26 05:50:27;;;;;;;2.33;1.70;;;9.20;99.90;;;;;;5093076;28;20209;-70
2022/04/26 05:52:54;;;;;;;1.97;1.40;;;9.20;99.90;;;;;;5092268;28;20206;-70
2022/04/26 05:55:21;;;;;;;2.10;1.40;;;9.40;99.90;;;;;;5092602;28;20265;-68
2022/04/26 05:57:48;;;;;;;4.70;1.70;;;9.30;99.90;;;;;;5093237;28;20229;-68
2022/04/26 06:00:16;;;;;;;5.47;1.77;;;9.50;99.90;;;;;;5093145;28;20198;-69
2022/04/26 06:02:43;;;;;;;3.90;1.83;;;9.60;99.90;;;;;;5092702;28;20655;-68
2022/04/26 06:05:12;;;;;;;2.57;1.40;;;9.70;99.90;;;;;;5092947;28;20297;-68
2022/04/26 06:07:39;;;;;;;4.90;1.63;;;9.80;99.90;;;;;;5092473;28;20198;-68
2022/04/26 06:10:07;;;;;;;3.70;1.93;;;9.80;99.90;;;;;;5092389;28;20207;-69
2022/04/26 06:12:35;;;;;;;2.73;1.90;;;9.80;99.90;;;;;;5092322;28;20214;-69
2022/04/26 06:15:02;;;;;;;4.47;1.80;;;10.00;99.90;;;;;;5091006;28;20238;-69
2022/04/26 06:17:31;;;;;;;5.00;1.87;;;10.20;99.90;;;;;;5092830;28;20203;-69
2022/04/26 06:19:58;;;;;;;3.33;1.80;;;10.20;99.90;;;;;;5093255;28;20206;-69
2022/04/26 06:22:26;;;;;;;3.10;1.53;;;10.30;99.90;;;;;;5092533;28;20203;-69
2022/04/26 06:24:54;;;;;;;5.90;1.60;;;10.40;99.90;;;;;;5092768;28;20221;-69
2022/04/26 06:27:21;;;;;;;3.53;1.70;;;10.50;99.90;;;;;;5092957;28;20207;-69
2022/04/26 06:29:48;;;;;;;3.40;1.57;;;10.40;99.90;;;;;;5091682;28;20566;-69
2022/04/26 06:32:15;;;;;;;3.23;1.93;;;10.40;99.90;;;;;;5092703;28;20213;-69
2022/04/26 06:34:42;;;;;;;3.50;1.73;;;10.40;99.90;;;;;;5106226;28;20237;-69
2022/04/26 06:37:08;;;;;;;2.63;1.63;;;10.40;99.90;;;;;;5112955;28;20202;-69
2022/04/26 06:39:37;;;;;;;3.23;1.60;;;10.50;99.90;;;;;;5111381;28;20205;-70
2022/04/26 06:42:04;;;;;;;3.67;2.10;;;10.30;99.90;;;;;;5112349;28;20204;-69
2022/04/26 06:44:31;;;;;;;2.67;1.60;;;10.30;99.90;;;;;;5110941;28;20574;-69
2022/04/26 06:46:58;;;;;;;5.37;1.73;;;10.50;99.90;;;;;;5112478;28;20241;-69
2022/04/26 06:49:25;;;;;;;4.43;1.70;;;10.60;99.90;;;;;;5112147;28;20292;-69
2022/04/26 06:51:52;;;;;;;2.40;1.70;;;10.60;99.90;;;;;;5112006;28;20556;-69
2022/04/26 06:54:18;;;;;;;2.97;1.50;;;10.70;99.90;;;;;;5112409;28;20234;-69
2022/04/26 06:56:46;;;;;;;2.20;1.60;;;10.80;99.90;;;;;;5113044;28;20212;-69
2022/04/26 06:59:13;;;;;;;2.93;1.77;;;10.90;99.90;;;;;;5112149;28;20202;-69
2022/04/26 07:01:40;;;;;;;3.93;1.50;;;10.90;99.90;;;;;;5111545;28;20198;-69
2022/04/26 07:04:08;;;;;;;5.77;1.77;;;11.00;99.90;;;;;;5112499;28;20697;-69
2022/04/26 07:06:35;;;;;;;3.93;1.50;;;10.90;99.90;;;;;;5112900;28;20205;-69
2022/04/26 07:09:03;;;;;;;2.30;1.30;;;10.90;99.90;;;;;;5112530;28;20561;-69
2022/04/26 07:11:30;;;;;;;2.30;1.40;;;10.80;99.90;;;;;;5112948;28;20213;-69
2022/04/26 07:13:58;;;;;;;2.43;1.20;;;10.80;99.90;;;;;;5112746;28;20226;-69
2022/04/26 07:16:25;;;;;;;2.53;1.20;;;11.00;99.90;;;;;;5112708;28;20240;-69
2022/04/26 07:18:52;;;;;;;1.93;1.20;;;11.00;99.90;;;;;;5112795;28;20213;-69
2022/04/26 07:21:19;;;;;;;2.10;1.30;;;11.10;99.90;;;;;;5112206;28;20558;-69
2022/04/26 07:23:46;;;;;;;3.60;1.20;;;10.90;99.90;;;;;;5095115;28;20230;-69
2022/04/26 07:26:13;;;;;;;2.33;1.40;;;10.80;99.90;;;;;;5095632;28;20207;-69
2022/04/26 07:28:39;;;;;;;1.63;1.17;;;10.80;99.90;;;;;;5094268;28;20209;-69
2022/04/26 07:31:08;;;;;;;2.43;1.40;;;10.70;99.90;;;;;;5094757;28;20203;-69
2022/04/26 07:36:21;;;;;;;2.07;1.50;;;10.70;99.90;;;;;;5095695;28;20325;-69
2022/04/26 07:38:48;;;;;;;2.60;1.33;;;10.70;99.90;;;;;;5095366;28;20579;-69
2022/04/26 07:41:15;;;;;;;3.83;1.10;;;10.70;99.90;;;;;;5095132;28;20205;-69
2022/04/26 07:43:42;;;;;;;2.13;1.40;;;10.70;99.90;;;;;;5096013;28;20236;-69
2022/04/26 07:46:13;;;;;;;2.57;1.30;;;10.70;99.90;;;;;;5095877;28;20221;-70
2022/04/26 07:48:42;;;;;;;2.47;1.23;;;10.80;99.90;;;;;;5095646;28;20233;-70
2022/04/26 07:51:09;;;;;;;2.43;1.47;;;10.80;99.90;;;;;;5095724;28;20286;-69
2022/04/26 07:53:37;;;;;;;3.50;1.57;;;10.90;99.90;;;;;;5095042;28;20222;-70
2022/04/26 07:56:04;;;;;;;3.97;1.40;;;11.00;99.90;;;;;;5094588;28;20599;-69
2022/04/26 07:58:32;;;;;;;1.57;1.10;;;11.10;99.90;;;;;;5095232;28;20226;-69
2022/04/26 08:00:59;;;;;;;2.97;1.80;;;11.20;99.90;;;;;;5094275;28;20206;-70
2022/04/26 08:03:27;;;;;;;2.87;1.30;;;11.20;99.90;;;;;;5095443;28;20222;-69
2022/04/26 08:05:54;;;;;;;2.20;1.30;;;11.20;99.90;;;;;;5095423;28;20202;-69
2022/04/26 08:08:21;;;;;;;7.53;1.43;;;11.30;99.90;;;;;;5094762;28;20678;-69
2022/04/26 08:10:47;;;;;;;1.83;1.20;;;11.10;99.90;;;;;;5095219;28;20271;-69
2022/04/26 08:13:14;;;;;;;2.47;1.30;;;11.20;99.90;;;;;;5094771;28;20223;-69
2022/04/26 08:15:41;;;;;;;1.40;1.20;;;11.20;99.90;;;;;;5100137;28;20225;-71
2022/04/26 08:18:09;;;;;;;3.10;1.50;;;11.20;99.90;;;;;;5108115;28;20206;-72
2022/04/26 08:20:38;;;;;;;4.33;1.80;;;11.20;99.90;;;;;;5095791;28;20202;-73
2022/04/26 08:23:06;;;;;;;2.83;1.70;;;11.40;99.90;;;;;;5094418;28;20227;-72
2022/04/26 08:28:17;;;;;;;3.13;1.50;;;11.80;99.90;;;;;;5114594;28;20304;-73
2022/04/26 08:30:44;;;;;;;2.70;1.40;;;11.70;99.90;;;;;;5114567;28;20761;-72
2022/04/26 08:33:11;;;;;;;3.00;1.73;;;11.70;99.90;;;;;;5113707;28;20221;-69
2022/04/26 08:35:40;;;;;;;2.60;1.30;;;11.70;99.90;;;;;;5113733;28;20230;-69
2022/04/26 08:38:07;;;;;;;5.20;1.60;;;11.80;99.90;;;;;;5113018;28;20212;-69
2022/04/26 08:40:33;;;;;;;3.13;1.60;;;12.10;99.90;;;;;;5114343;28;20205;-69
2022/04/26 08:43:02;;;;;;;1.93;1.23;;;12.40;99.90;;;;;;5113864;28;20221;-69
2022/04/26 08:45:30;;;;;;;5.00;1.70;;;12.70;99.90;;;;;;5113678;28;20577;-70
2022/04/26 08:51:03;;;;;;;4.33;1.57;;;13.10;99.90;;;;;;5105418;28;20209;-69
2022/04/26 08:53:31;;;;;;;2.30;1.40;;;13.20;99.90;;;;;;5093863;28;20226;-70
2022/04/26 08:56:00;;;;;;;5.53;1.80;;;13.20;99.90;;;;;;5109652;28;20229;-69
2022/04/26 08:58:33;;;;;;;2.93;1.70;;;13.30;99.90;;;;;;5113247;28;20201;-70
2022/04/26 09:01:12;;;;;;;3.20;1.40;;;13.80;99.90;;;;;;5113081;28;20584;-69
2022/04/26 09:03:41;;;;;;;3.23;1.20;;;14.70;99.90;;;;;;5110255;28;20717;-69
2022/04/26 09:06:13;;;;;;;2.70;1.53;;;14.60;99.90;;;;;;5112004;28;20661;-70
2022/04/26 09:08:41;;;;;;;3.43;1.50;;;14.50;99.90;;;;;;5103176;28;20648;-70
2022/04/26 09:11:27;;;;;;;7.23;2.97;;;14.50;99.90;;;;;;5109103;28;20206;-70
2022/04/26 09:13:54;;;;;;;4.83;1.50;;;14.80;99.90;;;;;;5098552;28;20217;-70
2022/04/26 09:16:22;;;;;;;4.37;1.30;;;15.00;99.90;;;;;;5091332;28;20698;-70
2022/04/26 09:18:55;;;;;;;2.07;1.40;;;15.10;99.90;;;;;;5092468;28;20212;-70
2022/04/26 09:21:27;;;;;;;2.33;1.57;;;15.20;99.90;;;;;;5102513;28;20201;-69
2022/04/26 09:23:57;;;;;;;3.17;1.73;;;15.60;99.90;;;;;;5098163;28;20248;-70
2022/04/26 09:26:25;;;;;;;2.47;1.50;;;15.30;99.80;;;;;;5101299;28;20202;-69
2022/04/26 09:28:52;;;;;;;2.70;1.43;;;15.00;99.90;;;;;;5102212;28;20205;-69
2022/04/26 09:31:21;;;;;;;4.73;1.57;;;15.20;99.90;;;;;;5101661;28;20198;-70
2022/04/26 09:33:51;;;;;;;4.83;1.30;;;15.40;99.90;;;;;;5102023;28;20209;-69
2022/04/26 09:36:19;;;;;;;2.60;1.53;;;15.80;99.90;;;;;;5103369;28;20236;-70
2022/04/26 09:38:53;;;;;;;1.73;1.33;;;16.00;99.90;;;;;;5100022;28;20197;-69
2022/04/26 09:41:20;;;;;;;2.60;1.60;;;16.00;99.10;;;;;;5095518;28;20198;-70
2022/04/26 09:44:02;;;;;;;3.83;2.67;;;15.90;99.00;;;;;;5107385;28;20270;-70
2022/04/26 09:46:49;;;;;;;3.47;1.50;;;16.00;98.60;;;;;;5102425;28;20217;-70
2022/04/26 09:49:19;;;;;;;2.77;1.63;;;15.90;99.40;;;;;;5105035;28;20198;-69
2022/04/26 09:51:47;;;;;;;2.70;1.50;;;15.50;98.70;;;;;;5103324;28;20194;-69
2022/04/26 09:54:15;;;;;;;2.17;1.57;;;15.00;98.90;;;;;;5098909;28;20229;-69
2022/04/26 09:56:45;;;;;;;6.10;1.80;;;14.70;99.10;;;;;;5103173;28;20230;-69
2022/04/26 09:59:15;;;;;;;4.00;1.57;;;14.40;99.90;;;;;;5097524;28;20193;-69
2022/04/26 10:01:46;;;;;;;2.10;1.50;;;14.40;99.90;;;;;;5107312;28;20608;-69
2022/04/26 10:04:20;;;;;;;2.93;1.67;;;14.40;99.90;;;;;;5102641;28;20267;-69
2022/04/26 10:06:49;;;;;;;1.40;1.27;;;14.40;99.80;;;;;;5104326;28;20675;-69
2022/04/26 10:09:18;;;;;;;2.20;1.40;;;14.20;99.20;;;;;;5100897;28;20198;-69
2022/04/26 10:11:45;;;;;;;2.00;1.47;;;14.10;99.60;;;;;;5110676;28;20202;-70
2022/04/26 10:14:13;;;;;;;2.80;1.70;;;14.20;99.90;;;;;;5094431;28;20213;-70
2022/04/26 10:16:40;;;;;;;1.97;1.40;;;14.30;99.90;;;;;;5093461;28;20711;-69
2022/04/26 10:19:08;;;;;;;1.73;1.30;;;14.30;99.20;;;;;;5105929;28;20200;-69
2022/04/26 10:21:47;;;;;;;3.17;1.60;;;14.40;99.60;;;;;;5106616;28;20201;-69
2022/04/26 10:24:15;;;;;;;2.10;1.30;;;14.20;99.90;;;;;;5101389;28;20221;-69
2022/04/26 10:26:43;;;;;;;4.20;1.70;;;14.20;99.90;;;;;;5111300;28;20561;-69
2022/04/26 10:29:16;;;;;;;7.20;1.60;;;14.10;99.90;;;;;;5103480;28;20199;-69
2022/04/26 10:31:44;;;;;;;6.63;1.60;;;14.20;99.90;;;;;;5104724;28;20201;-69
2022/04/26 10:34:24;;;;;;;3.30;1.80;;;14.40;99.90;;;;;;5094634;28;20760;-69
2022/04/26 10:36:51;;;;;;;2.87;1.70;;;14.50;99.90;;;;;;5095657;28;20225;-69
2022/04/26 10:39:26;;;;;;;3.07;1.70;;;14.50;99.50;;;;;;5110708;28;20193;-69
2022/04/26 10:41:55;;;;;;;2.93;1.57;;;14.40;99.80;;;;;;5102147;28;20197;-68
2022/04/26 10:44:49;;;;;;;2.30;1.77;;;14.40;98.60;;;;;;5110342;28;20222;-69
2022/04/26 10:47:24;;;;;;;1.80;1.20;;;14.30;97.20;;;;;;5069441;28;20198;-68
2022/04/26 10:49:52;;;;;;;2.47;1.40;;;14.30;98.10;;;;;;5089807;28;20234;-71
2022/04/26 10:52:43;;;;;;;3.87;1.60;;;14.30;98.00;;;;;;5107243;28;20201;-68
2022/04/26 10:55:15;;;;;;;2.70;1.50;;;14.30;98.10;;;;;;5104690;28;20244;-70
2022/04/26 10:57:45;;;;;;;5.57;2.00;;;14.40;98.40;;;;;;5113840;28;20198;-69
2022/04/26 11:00:15;;;;;;;2.20;1.53;;;14.70;98.40;;;;;;5110475;28;20198;-69
2022/04/26 11:02:43;;;;;;;1.70;1.37;;;15.00;98.60;;;;;;5110502;28;20194;-69
2022/04/26 11:05:12;;;;;;;4.73;1.37;;;15.30;98.80;;;;;;5113263;27;20620;-69
2022/04/26 11:07:40;;;;;;;5.80;1.43;;;15.60;99.00;;;;;;5102365;28;20203;-71
2022/04/26 11:10:09;;;;;;;3.47;1.63;;;15.60;99.00;;;;;;5110823;28;20768;-70
2022/04/26 11:12:37;;;;;;;4.00;1.53;;;15.50;99.30;;;;;;5098472;28;20198;-70
2022/04/26 11:15:07;;;;;;;3.07;1.70;;;15.20;98.50;;;;;;5115559;28;20570;-70
2022/04/26 11:17:35;;;;;;;1.80;1.37;;;15.10;98.80;;;;;;5116059;28;20479;-68
2022/04/26 11:20:05;;;;;;;2.37;1.50;;;15.20;99.00;;;;;;5109479;28;20200;-69
2022/04/26 11:22:32;;;;;;;1.67;1.30;;;15.30;98.00;;;;;;5114859;28;20305;-68
2022/04/26 11:28:02;;;;;;;2.10;1.37;;;15.40;97.40;;;;;;5115168;28;20209;-69
2022/04/26 11:30:32;;;;;;;1.37;1.10;;;15.50;98.20;;;;;;5115254;28;20206;-68
2022/04/26 11:33:00;;;;;;;2.77;1.23;;;15.30;97.80;;;;;;5115850;28;20210;-69
2022/04/26 11:35:27;;;;;;;2.80;1.70;;;15.50;96.80;;;;;;5116208;28;20202;-69
2022/04/26 11:37:56;;;;;;;2.90;1.50;;;15.40;96.60;;;;;;5114656;28;20198;-69
2022/04/26 11:40:28;;;;;;;1.73;1.20;;;15.40;96.30;;;;;;5118891;28;20201;-69
2022/04/26 11:42:56;;;;;;;2.27;1.23;;;15.30;96.80;;;;;;5118256;28;20198;-69
2022/04/26 11:45:28;;;;;;;1.67;1.47;;;15.30;96.40;;;;;;5116096;28;20204;-68
2022/04/26 11:47:57;;;;;;;2.97;1.37;;;15.40;96.40;;;;;;5114730;28;20650;-69
2022/04/26 11:50:25;;;;;;;2.57;1.37;;;15.60;96.50;;;;;;5113535;28;20685;-68
2022/04/26 11:52:55;;;;;;;2.40;1.30;;;15.80;95.60;;;;;;5114457;28;20193;-68
2022/04/26 11:55:27;;;;;;;4.07;2.43;;;15.80;95.50;;;;;;5110707;28;20270;-68
2022/04/26 11:58:06;;;;;;;1.67;1.00;;;15.70;95.90;;;;;;5110248;28;20212;-69
2022/04/26 12:00:33;;;;;;;4.10;1.13;;;15.40;94.50;;;;;;5109885;28;20204;-69
2022/04/26 12:03:02;;;;;;;2.13;1.30;;;15.40;94.80;;;;;;5111602;28;20802;-68
2022/04/26 12:05:35;;;;;;;2.40;1.67;;;15.40;95.50;;;;;;5114566;28;20202;-68
2022/04/26 12:08:02;;;;;;;2.37;1.30;;;15.50;95.50;;;;;;5103247;28;20629;-69
2022/04/26 12:10:31;;;;;;;2.90;1.33;;;15.60;95.40;;;;;;5105851;28;20209;-68
2022/04/26 12:13:01;;;;;;;1.33;1.20;;;15.70;94.10;;;;;;5112734;28;20612;-69
2022/04/26 12:15:30;;;;;;;1.70;1.30;;;15.70;94.40;;;;;;5099449;28;20512;-69
2022/04/26 12:18:10;;;;;;;4.90;1.83;;;15.90;94.30;;;;;;5110954;28;20697;-69
2022/04/26 12:20:38;;;;;;;1.70;1.23;;;15.80;95.00;;;;;;5112533;28;20208;-68
2022/04/26 12:23:07;;;;;;;2.23;1.30;;;15.90;94.30;;;;;;5104034;28;20226;-69
2022/04/26 12:25:35;;;;;;;2.87;1.30;;;15.90;94.00;;;;;;5106341;28;20195;-68
2022/04/26 12:28:07;;;;;;;1.80;1.30;;;15.70;93.40;;;;;;5105537;28;20206;-69
2022/04/26 12:30:37;;;;;;;1.97;0.97;;;15.50;94.60;;;;;;5103755;27;20201;-68
2022/04/26 12:33:05;;;;;;;1.70;1.20;;;15.40;94.20;;;;;;5096979;28;20249;-68
2022/04/26 12:35:33;;;;;;;2.47;1.17;;;15.30;95.10;;;;;;5105770;28;20566;-69
2022/04/26 12:38:10;;;;;;;1.90;1.10;;;15.40;94.30;;;;;;5104879;28;20236;-69
2022/04/26 12:40:38;;;;;;;2.67;1.33;;;15.40;94.70;;;;;;5110997;27;20283;-69
2022/04/26 12:43:27;;;;;;;1.70;1.17;;;15.40;94.30;;;;;;5101806;28;20248;-68
2022/04/26 12:46:02;;;;;;;3.83;1.90;;;15.60;94.70;;;;;;5105504;28;20258;-68
2022/04/26 12:51:20;;;;;;;2.33;1.50;;;15.60;94.60;;;;;;5094557;28;20210;-69
2022/04/26 12:53:51;;;;;;;5.43;1.40;;;15.80;95.20;;;;;;5098290;28;20745;-72
2022/04/26 12:56:20;;;;;;;1.70;1.30;;;15.90;95.40;;;;;;5105047;28;20225;-73
2022/04/26 12:58:48;;;;;;;2.57;1.50;;;16.00;95.10;;;;;;5108831;28;20245;-71
2022/04/26 13:01:16;;;;;;;4.03;1.27;;;16.20;95.10;;;;;;5096005;28;20201;-72
2022/04/26 13:03:46;;;;;;;2.33;1.33;;;16.40;95.20;;;;;;5100065;28;20226;-71
2022/04/26 13:06:16;;;;;;;2.03;1.30;;;16.50;94.70;;;;;;5109085;28;20308;-72
2022/04/26 13:08:43;;;;;;;4.07;1.83;;;16.70;94.70;;;;;;5107788;28;20198;-72
2022/04/26 13:11:11;;;;;;;1.87;1.20;;;16.80;95.00;;;;;;5109648;28;20194;-73
2022/04/26 13:13:40;;;;;;;3.43;1.73;;;16.40;94.90;;;;;;5103388;28;20222;-71
2022/04/26 13:16:08;;;;;;;2.77;1.70;;;16.30;95.70;;;;;;5111320;28;20197;-73
2022/04/26 13:18:34;;;;;;;2.73;1.83;;;16.20;95.40;;;;;;5093270;28;20198;-72
2022/04/26 13:21:02;;;;;;;2.73;1.90;;;15.90;95.40;;;;;;5108232;28;20659;-73
2022/04/26 13:23:32;;;;;;;2.67;2.00;;;15.80;95.80;;;;;;5102506;28;20265;-70
2022/04/26 13:25:59;;;;;;;2.90;1.90;;;15.80;95.80;;;;;;5104392;28;20233;-71
2022/04/26 13:28:26;;;;;;;2.30;1.57;;;16.00;95.90;;;;;;5096761;28;20557;-71
2022/04/26 13:30:53;;;;;;;4.00;1.87;;;16.20;95.50;;;;;;5108644;28;20210;-71
2022/04/26 13:33:20;;;;;;;5.43;2.03;;;16.40;95.20;;;;;;5099590;28;20245;-72
2022/04/26 13:35:47;;;;;;;3.53;1.97;;;16.40;95.40;;;;;;5102233;28;20194;-72
2022/04/26 13:38:16;;;;;;;2.10;1.63;;;16.40;94.80;;;;;;5107582;28;20752;-72
2022/04/26 13:40:45;;;;;;;4.70;1.60;;;16.50;95.30;;;;;;5109022;28;20554;-72
2022/04/26 13:43:12;;;;;;;3.50;2.00;;;16.70;94.40;;;;;;5107301;28;20269;-71
2022/04/26 13:45:39;;;;;;;3.10;2.10;;;16.90;94.00;;;;;;5109744;28;20615;-72
2022/04/26 13:48:10;;;;;;;4.57;1.60;;;16.80;93.00;;;;;;5106625;28;20876;-72
2022/04/26 13:50:38;;;;;;;4.03;1.67;;;16.60;93.20;;;;;;5109684;28;20229;-72
2022/04/26 13:53:05;;;;;;;3.53;1.53;;;16.70;92.90;;;;;;5110015;28;20222;-71
2022/04/26 13:55:32;;;;;;;2.30;1.57;;;16.50;92.30;;;;;;5112221;28;20223;-71
2022/04/26 13:58:03;;;;;;;3.10;1.23;;;16.60;92.60;;;;;;5100499;28;20226;-71
2022/04/26 14:00:34;;;;;;;4.00;1.40;;;16.40;92.80;;;;;;5108186;28;20193;-72
2022/04/26 14:03:00;;;;;;;2.80;1.50;;;16.50;92.90;;;;;;5107596;28;20225;-72
2022/04/26 14:05:27;;;;;;;1.87;1.40;;;16.60;92.60;;;;;;5097860;28;20213;-72
2022/04/26 14:07:54;;;;;;;2.10;1.10;;;16.60;92.10;;;;;;5110152;28;20197;-72
2022/04/26 14:10:21;;;;;;;6.70;1.30;;;16.60;92.70;;;;;;5095092;28;20205;-71
2022/04/26 14:12:48;;;;;;;1.73;1.23;;;16.60;92.50;;;;;;5107930;28;20208;-72
2022/04/26 14:23:31;;;;;;;3.10;1.53;;;16.50;91.80;;;;;;5103336;28;20273;-71
2022/04/26 14:25:58;;;;;;;1.83;1.37;;;16.50;91.90;;;;;;5099423;28;20289;-72
2022/04/26 14:28:24;;;;;;;4.27;1.50;;;16.60;92.00;;;;;;5106242;28;20209;-71
2022/04/26 14:30:53;;;;;;;2.67;1.63;;;16.60;91.70;;;;;;5106403;28;20199;-71
2022/04/26 14:33:19;;;;;;;3.40;1.53;;;16.70;92.00;;;;;;5115706;28;20228;-71
2022/04/26 14:35:46;;;;;;;2.30;1.47;;;16.80;91.70;;;;;;5115681;28;20558;-72
2022/04/26 14:38:13;;;;;;;2.50;1.63;;;16.90;91.90;;;;;;5115403;28;20237;-71
2022/04/26 14:40:40;;;;;;;3.63;1.33;;;17.00;92.10;;;;;;5116600;28;20204;-72
2022/04/26 14:43:09;;;;;;;2.00;1.40;;;16.80;91.30;;;;;;5115761;28;20225;-71
2022/04/26 14:45:42;;;;;;;1.50;1.20;;;16.60;92.10;;;;;;5115551;28;20209;-72
2022/04/26 14:48:11;;;;;;;2.20;1.10;;;16.50;92.20;;;;;;5115451;28;20248;-72
2022/04/26 14:50:38;;;;;;;3.70;1.17;;;16.70;91.90;;;;;;5116018;28;20266;-71
2022/04/26 14:53:06;;;;;;;2.63;1.50;;;16.60;91.70;;;;;;5115539;28;20248;-71
2022/04/26 14:55:33;;;;;;;2.63;1.50;;;16.50;91.50;;;;;;5115655;28;20198;-71
2022/04/26 14:58:00;;;;;;;2.63;1.90;;;16.30;91.80;;;;;;5115536;28;20317;-70
2022/04/26 15:00:26;;;;;;;2.17;1.40;;;16.30;91.60;;;;;;5113214;28;20289;-70
2022/04/26 15:02:53;;;;;;;2.33;1.20;;;16.10;91.70;;;;;;5114798;28;20197;-71
2022/04/26 15:05:23;;;;;;;2.40;1.70;;;16.20;92.30;;;;;;5114880;28;20198;-71
2022/04/26 15:10:34;;;;;;;2.77;1.70;;;16.30;92.40;;;;;;5113176;28;20255;-71
2022/04/26 15:18:29;;;;;;;2.07;1.47;;;16.10;91.80;;;;;;5114619;28;20232;-71
2022/04/26 15:20:57;;;;;;;2.50;1.30;;;16.10;91.80;;;;;;5106214;28;20207;-71
2022/04/26 15:23:25;;;;;;;3.90;1.83;;;16.00;91.80;;;;;;5105113;27;20236;-71
2022/04/26 15:25:55;;;;;;;2.80;1.70;;;16.10;91.80;;;;;;5115872;28;20308;-72
2022/04/26 15:28:24;;;;;;;2.27;1.50;;;16.20;91.90;;;;;;5115406;28;20198;-71
2022/04/26 15:30:51;;;;;;;4.83;1.60;;;16.20;92.00;;;;;;5115862;27;20198;-71
2022/04/26 15:33:19;;;;;;;2.93;2.00;;;16.10;91.90;;;;;;5114545;28;20209;-71
2022/04/26 15:35:47;;;;;;;2.10;1.37;;;16.10;91.70;;;;;;5115495;28;20198;-72
2022/04/26 15:38:15;;;;;;;4.67;1.53;;;16.20;91.30;;;;;;5114795;28;20229;-71
2022/04/26 15:40:46;;;;;;;2.37;1.40;;;16.20;91.70;;;;;;5115032;28;20665;-71
2022/04/26 15:43:13;;;;;;;2.67;1.63;;;16.30;91.80;;;;;;5113030;28;20218;-71
2022/04/26 15:45:42;;;;;;;4.70;1.40;;;16.30;91.80;;;;;;5112300;28;20205;-71
2022/04/26 15:48:09;;;;;;;2.77;1.63;;;16.30;91.80;;;;;;5112462;28;20247;-71
2022/04/26 15:50:39;;;;;;;2.80;1.60;;;16.50;91.50;;;;;;5109411;28;20722;-74
2022/04/26 15:53:06;;;;;;;2.50;1.40;;;16.60;90.90;;;;;;5114316;28;20221;-74
2022/04/26 15:55:34;;;;;;;2.07;1.30;;;16.30;91.10;;;;;;5114699;27;20197;-73
2022/04/26 15:58:01;;;;;;;3.10;1.67;;;16.40;91.00;;;;;;5111286;28;20585;-73
2022/04/26 16:00:28;;;;;;;3.93;1.60;;;16.40;90.90;;;;;;5114219;28;20291;-75
2022/04/26 16:02:55;;;;;;;4.53;1.50;;;16.40;90.80;;;;;;5114252;28;20871;-72
2022/04/26 16:05:22;;;;;;;3.23;1.80;;;16.30;90.80;;;;;;5112160;28;20204;-74
2022/04/26 16:07:49;;;;;;;3.00;1.80;;;16.20;91.40;;;;;;5113692;28;20206;-74
2022/04/26 16:21:14;;;;;;;1.73;1.33;;;16.20;90.50;;;;;;5093703;28;20249;-74
2022/04/26 16:23:41;;;;;;;3.70;1.50;;;16.10;90.80;;;;;;5092304;28;20230;-74
2022/04/26 16:26:08;;;;;;;3.20;1.60;;;16.20;90.50;;;;;;5092782;28;20719;-75
2022/04/26 16:28:37;;;;;;;2.57;1.73;;;16.20;91.10;;;;;;5099855;27;20228;-75
2022/04/26 16:31:04;;;;;;;3.17;1.63;;;16.00;91.60;;;;;;5114176;28;20205;-74
2022/04/26 16:33:31;;;;;;;2.63;1.40;;;15.80;92.40;;;;;;5113271;28;20218;-75
2022/04/26 16:35:58;;;;;;;1.97;1.37;;;15.70;93.10;;;;;;5114028;28;20225;-75
2022/04/26 16:38:25;;;;;;;4.23;1.47;;;15.60;93.30;;;;;;5113765;28;20245;-74
2022/04/26 16:40:52;;;;;;;2.57;1.63;;;15.60;93.60;;;;;;5112852;28;20684;-73
2022/04/26 16:43:19;;;;;;;2.33;1.70;;;15.40;93.50;;;;;;5113254;28;20228;-74
2022/04/26 16:45:48;;;;;;;3.07;1.43;;;15.30;93.40;;;;;;5113858;27;20231;-73
2022/04/26 16:48:16;;;;;;;4.43;1.60;;;15.30;93.40;;;;;;5113389;28;20251;-73
2022/04/26 16:50:43;;;;;;;5.30;1.70;;;15.30;93.90;;;;;;5114209;28;20205;-74
2022/04/26 16:53:09;;;;;;;2.97;1.50;;;15.20;94.30;;;;;;5108857;28;20215;-74
2022/04/26 16:55:36;;;;;;;2.50;1.50;;;15.00;94.10;;;;;;5119564;27;20197;-74
2022/04/26 16:58:03;;;;;;;2.80;1.60;;;14.90;94.30;;;;;;5121932;27;20238;-74
2022/04/26 17:00:34;;;;;;;4.17;1.53;;;14.80;94.60;;;;;;5104196;28;20658;-74
2022/04/26 17:03:02;;;;;;;2.93;1.60;;;14.80;94.80;;;;;;5091662;28;20202;-74
2022/04/26 17:05:45;;;;;;;1.93;1.50;;;14.70;94.80;;;;;;5092811;28;20206;-71
2022/04/26 17:08:12;;;;;;;2.63;1.57;;;14.70;95.00;;;;;;5092407;28;20206;-71
2022/04/26 17:10:38;;;;;;;5.27;1.60;;;14.70;94.50;;;;;;5109168;27;20202;-71
2022/04/26 17:13:05;;;;;;;3.00;1.50;;;14.60;94.60;;;;;;5111186;28;20213;-71
2022/04/26 17:15:32;;;;;;;3.43;1.73;;;14.60;94.90;;;;;;5109899;28;20204;-73